Time;durP1;ratioP1;P1;durP2;ratioP2;P2;SDS_P1;SDS_P2;PMS_P1;PMS_P2;Temp;Humidity;BMP_temperature;BMP_pressure;BME280_temperature;BME280_humidity;BME280_pressure;Samples;Min_cycle;Max_cycle;Signal;HPM_P1;HPM_P2
2023/11/26 00:02:06;;;;;;;3.10;1.50;;;-0.90;99.90;;;;;;5041501;28;20493;-63
2023/11/26 00:04:37;;;;;;;3.55;1.40;;;-0.90;99.90;;;;;;5042168;28;20021;-63
2023/11/26 00:07:03;;;;;;;2.35;0.98;;;-0.90;99.90;;;;;;5042353;28;20037;-63
2023/11/26 00:09:28;;;;;;;1.77;1.27;;;-0.90;99.90;;;;;;5043054;28;20678;-63
2023/11/26 00:11:54;;;;;;;1.85;1.50;;;-1.00;99.90;;;;;;5044289;28;20025;-63
2023/11/26 00:14:20;;;;;;;4.40;1.67;;;-1.00;99.90;;;;;;5026119;28;20028;-63
2023/11/26 00:16:46;;;;;;;3.83;1.70;;;-1.00;99.90;;;;;;5043093;28;20396;-62
2023/11/26 00:19:11;;;;;;;3.30;1.35;;;-1.00;99.90;;;;;;5041570;28;20040;-63
2023/11/26 00:21:37;;;;;;;1.48;1.17;;;-1.00;99.90;;;;;;5040545;28;20025;-63
2023/11/26 00:24:03;;;;;;;2.75;1.08;;;-1.00;99.90;;;;;;5027668;28;20021;-63
2023/11/26 00:26:28;;;;;;;2.63;1.75;;;-1.00;99.90;;;;;;5043054;28;20025;-61
2023/11/26 00:28:54;;;;;;;2.80;1.42;;;-1.00;99.90;;;;;;5042521;28;20041;-63
2023/11/26 00:31:20;;;;;;;3.13;1.52;;;-1.00;99.90;;;;;;5031135;28;20057;-63
2023/11/26 00:33:48;;;;;;;4.15;1.73;;;-1.10;99.90;;;;;;5047347;28;20020;-63
2023/11/26 00:36:18;;;;;;;1.27;1.08;;;-1.10;99.90;;;;;;5046081;28;20037;-64
2023/11/26 00:38:46;;;;;;;2.78;1.35;;;-1.10;99.90;;;;;;5046409;28;20394;-64
2023/11/26 00:41:13;;;;;;;2.63;1.77;;;-1.00;99.90;;;;;;5029976;28;20033;-62
2023/11/26 00:43:38;;;;;;;2.50;1.73;;;-1.10;99.90;;;;;;5045275;28;20028;-63
2023/11/26 00:46:04;;;;;;;3.13;1.55;;;-1.10;99.90;;;;;;5027151;28;20025;-63
2023/11/26 00:48:30;;;;;;;3.80;1.50;;;-1.10;99.90;;;;;;5045759;28;20029;-63
2023/11/26 00:50:56;;;;;;;1.90;1.25;;;-1.10;99.90;;;;;;5046788;28;20104;-64
2023/11/26 00:53:22;;;;;;;3.00;1.10;;;-1.10;99.90;;;;;;5045238;28;20109;-63
2023/11/26 00:55:47;;;;;;;4.18;1.42;;;-1.10;99.90;;;;;;5045999;28;20047;-64
2023/11/26 00:58:14;;;;;;;4.00;1.77;;;-1.20;99.90;;;;;;5046902;28;20033;-63
2023/11/26 01:00:39;;;;;;;4.00;1.52;;;-1.20;99.90;;;;;;5044751;28;20047;-64
2023/11/26 01:03:06;;;;;;;1.92;1.05;;;-1.20;99.90;;;;;;5047085;28;20037;-63
2023/11/26 01:05:32;;;;;;;1.88;1.27;;;-1.20;99.90;;;;;;5046700;28;20501;-63
2023/11/26 01:07:57;;;;;;;2.38;1.50;;;-1.20;99.90;;;;;;5045455;28;20079;-63
2023/11/26 01:10:23;;;;;;;4.38;2.03;;;-1.30;99.90;;;;;;5043848;28;20107;-64
2023/11/26 01:12:48;;;;;;;2.72;1.50;;;-1.30;99.90;;;;;;5043844;28;20025;-64
2023/11/26 01:15:15;;;;;;;4.32;1.58;;;-1.30;99.90;;;;;;5047615;28;20464;-63
2023/11/26 01:17:41;;;;;;;1.92;1.65;;;-1.30;99.90;;;;;;5029687;28;20025;-64
2023/11/26 01:20:10;;;;;;;1.88;1.13;;;-1.30;99.90;;;;;;5048053;28;20481;-64
2023/11/26 01:22:35;;;;;;;2.67;1.65;;;-1.30;99.90;;;;;;5027682;28;20492;-64
2023/11/26 01:25:01;;;;;;;3.75;1.50;;;-1.30;99.90;;;;;;5046189;28;20028;-65
2023/11/26 01:27:27;;;;;;;3.10;1.30;;;-1.30;99.90;;;;;;5045796;28;20103;-65
2023/11/26 01:29:52;;;;;;;3.25;1.40;;;-1.30;99.90;;;;;;5027976;28;20087;-65
2023/11/26 01:32:18;;;;;;;1.77;1.45;;;-1.30;99.90;;;;;;5044046;28;20038;-64
2023/11/26 01:34:43;;;;;;;2.33;1.40;;;-1.40;99.90;;;;;;5046151;28;20040;-64
2023/11/26 01:37:09;;;;;;;1.58;1.20;;;-1.40;99.90;;;;;;5037531;28;20033;-64
2023/11/26 01:39:35;;;;;;;2.92;1.30;;;-1.40;99.90;;;;;;5043255;28;20033;-64
2023/11/26 01:42:00;;;;;;;1.20;1.08;;;-1.40;99.90;;;;;;5042990;28;20021;-64
2023/11/26 01:44:26;;;;;;;1.55;1.20;;;-1.40;99.90;;;;;;5041865;28;20021;-64
2023/11/26 01:46:52;;;;;;;1.83;1.38;;;-1.50;99.90;;;;;;5043922;28;20025;-64
2023/11/26 01:49:19;;;;;;;1.77;1.20;;;-1.40;99.90;;;;;;5043048;28;20022;-64
2023/11/26 01:51:45;;;;;;;1.90;1.52;;;-1.40;99.90;;;;;;5027326;28;20532;-65
2023/11/26 01:54:11;;;;;;;2.45;1.50;;;-1.40;99.90;;;;;;5027501;28;20025;-65
2023/11/26 01:56:37;;;;;;;2.35;1.15;;;-1.40;99.90;;;;;;5047357;28;20524;-64
2023/11/26 01:59:03;;;;;;;1.67;1.40;;;-1.40;99.90;;;;;;5027594;28;20166;-64
2023/11/26 02:01:30;;;;;;;2.35;1.10;;;-1.40;99.90;;;;;;5025715;28;20539;-63
2023/11/26 02:03:56;;;;;;;2.28;1.35;;;-1.40;99.90;;;;;;5044804;28;20543;-64
2023/11/26 02:06:22;;;;;;;2.47;1.02;;;-1.50;99.90;;;;;;5044064;28;20108;-64
2023/11/26 02:08:48;;;;;;;2.05;1.17;;;-1.50;99.90;;;;;;5041261;28;20171;-65
2023/11/26 02:11:14;;;;;;;3.10;1.20;;;-1.50;99.90;;;;;;5029868;28;20041;-65
2023/11/26 02:13:46;;;;;;;2.95;1.45;;;-1.60;99.90;;;;;;5042462;28;20207;-66
2023/11/26 02:16:13;;;;;;;2.33;1.50;;;-1.60;99.90;;;;;;5042609;28;20029;-65
2023/11/26 02:18:39;;;;;;;2.58;1.10;;;-1.60;99.90;;;;;;5041838;28;20044;-66
2023/11/26 02:21:07;;;;;;;4.03;1.20;;;-1.70;99.90;;;;;;5044074;28;20370;-65
2023/11/26 02:23:35;;;;;;;1.83;1.20;;;-1.70;99.90;;;;;;5026775;28;20166;-65
2023/11/26 02:26:02;;;;;;;3.17;1.35;;;-1.70;99.90;;;;;;5047239;28;20025;-65
2023/11/26 02:28:28;;;;;;;2.35;1.10;;;-1.70;99.90;;;;;;5043688;28;20025;-66
2023/11/26 02:30:53;;;;;;;1.95;1.13;;;-1.80;99.90;;;;;;5023032;28;20032;-65
2023/11/26 02:33:19;;;;;;;2.75;1.52;;;-1.80;99.90;;;;;;5045506;28;20021;-64
2023/11/26 02:35:44;;;;;;;2.42;1.35;;;-1.80;99.90;;;;;;5030295;28;20052;-65
2023/11/26 02:38:10;;;;;;;1.17;1.08;;;-1.80;99.90;;;;;;5044330;28;20020;-66
2023/11/26 02:40:35;;;;;;;1.92;1.23;;;-1.80;99.90;;;;;;5045479;28;20052;-65
2023/11/26 02:43:02;;;;;;;2.03;1.10;;;-1.90;99.90;;;;;;5031043;28;20017;-65
2023/11/26 02:45:29;;;;;;;1.58;1.38;;;-1.90;99.90;;;;;;5033866;28;20112;-65
2023/11/26 02:47:54;;;;;;;1.45;1.23;;;-1.90;99.90;;;;;;5022376;28;20017;-65
2023/11/26 02:50:20;;;;;;;1.00;0.77;;;-1.90;99.90;;;;;;5040739;28;20036;-64
2023/11/26 02:52:45;;;;;;;1.73;1.17;;;-1.90;99.90;;;;;;5024920;28;20025;-65
2023/11/26 02:55:11;;;;;;;3.05;1.20;;;-1.90;99.90;;;;;;5045535;28;20076;-62
2023/11/26 02:57:36;;;;;;;1.90;1.25;;;-1.90;99.90;;;;;;5041439;28;20068;-61
2023/11/26 03:00:08;;;;;;;2.53;1.10;;;-1.90;99.90;;;;;;5029392;28;20025;-63
2023/11/26 03:02:34;;;;;;;1.98;1.38;;;-2.00;99.90;;;;;;5027020;28;20546;-62
2023/11/26 03:05:05;;;;;;;2.67;1.05;;;-2.00;99.90;;;;;;5047332;28;20567;-62
2023/11/26 03:07:33;;;;;;;1.42;1.25;;;-2.00;99.90;;;;;;5030760;28;20029;-63
2023/11/26 03:15:27;;;;;;;1.67;1.05;;;-2.10;99.90;;;;;;5044814;28;20174;-63
2023/11/26 03:17:53;;;;;;;2.53;1.40;;;-2.10;99.90;;;;;;5044771;28;20119;-64
2023/11/26 03:20:19;;;;;;;1.52;1.40;;;-2.10;99.90;;;;;;5050314;28;20041;-62
2023/11/26 03:22:45;;;;;;;2.33;1.40;;;-2.10;99.90;;;;;;5029420;28;20021;-64
2023/11/26 03:25:10;;;;;;;2.85;1.48;;;-2.10;99.90;;;;;;5044439;28;20342;-63
2023/11/26 03:27:36;;;;;;;1.83;1.23;;;-2.20;99.90;;;;;;5045280;28;20385;-63
2023/11/26 03:30:01;;;;;;;1.80;1.38;;;-2.20;99.90;;;;;;5045705;28;20155;-63
2023/11/26 03:32:28;;;;;;;1.17;1.00;;;-2.20;99.90;;;;;;5025427;28;20073;-62
2023/11/26 03:34:54;;;;;;;3.78;1.30;;;-2.20;99.90;;;;;;5044756;28;20029;-63
2023/11/26 03:37:21;;;;;;;3.47;1.58;;;-2.30;99.90;;;;;;5042671;28;20425;-64
2023/11/26 03:39:47;;;;;;;1.42;1.33;;;-2.30;99.90;;;;;;5042299;28;20021;-63
2023/11/26 03:42:15;;;;;;;1.88;1.40;;;-2.30;99.90;;;;;;5026292;28;20025;-61
2023/11/26 03:44:41;;;;;;;1.63;1.30;;;-2.30;99.90;;;;;;5043333;28;20481;-63
2023/11/26 03:47:08;;;;;;;2.47;1.38;;;-2.40;99.90;;;;;;5048515;28;20033;-62
2023/11/26 03:49:34;;;;;;;2.33;1.52;;;-2.40;99.90;;;;;;5045663;28;20033;-63
2023/11/26 03:51:59;;;;;;;1.80;1.50;;;-2.40;99.90;;;;;;5039960;28;20405;-61
2023/11/26 03:54:25;;;;;;;2.38;1.58;;;-2.40;99.90;;;;;;5039922;28;20041;-61
2023/11/26 03:56:51;;;;;;;4.18;1.40;;;-2.40;99.90;;;;;;5043594;28;20196;-60
2023/11/26 03:59:17;;;;;;;2.17;1.38;;;-2.40;99.90;;;;;;5042564;28;20125;-62
2023/11/26 04:01:43;;;;;;;2.78;1.60;;;-2.40;99.90;;;;;;5054244;22;20049;-51
2023/11/26 04:04:09;;;;;;;1.50;1.35;;;-2.50;99.90;;;;;;5023287;28;20137;-53
2023/11/26 04:06:35;;;;;;;1.42;0.98;;;-2.50;99.90;;;;;;5024413;28;20502;-53
2023/11/26 04:09:03;;;;;;;2.33;1.25;;;-2.50;99.90;;;;;;5001532;28;20041;-49
2023/11/26 04:11:29;;;;;;;2.00;1.33;;;-2.50;99.90;;;;;;5023535;28;20509;-55
2023/11/26 04:13:54;;;;;;;2.45;1.52;;;-2.50;99.90;;;;;;5019311;28;20029;-51
2023/11/26 04:16:20;;;;;;;3.25;1.55;;;-2.50;99.90;;;;;;5019256;28;20033;-54
2023/11/26 04:18:46;;;;;;;1.60;1.27;;;-2.50;99.90;;;;;;5019234;28;20018;-54
2023/11/26 04:21:12;;;;;;;1.58;1.30;;;-2.60;99.90;;;;;;5017016;28;20021;-53
2023/11/26 04:23:38;;;;;;;1.60;1.25;;;-2.50;99.90;;;;;;5019932;28;20060;-53
2023/11/26 04:26:04;;;;;;;2.38;1.10;;;-2.60;99.90;;;;;;5022588;28;20029;-51
2023/11/26 04:28:30;;;;;;;1.63;1.08;;;-2.60;99.90;;;;;;5021699;28;20028;-54
2023/11/26 04:30:57;;;;;;;1.50;1.38;;;-2.60;99.90;;;;;;5020115;28;20044;-54
2023/11/26 04:33:22;;;;;;;2.47;1.00;;;-2.60;99.90;;;;;;5018228;28;20394;-54
2023/11/26 04:35:48;;;;;;;2.40;1.08;;;-2.60;99.90;;;;;;5020970;28;20038;-52
2023/11/26 04:38:13;;;;;;;1.50;1.40;;;-2.60;99.90;;;;;;5020166;28;20033;-54
2023/11/26 04:40:39;;;;;;;2.70;1.63;;;-2.60;99.90;;;;;;5019202;28;20105;-52
2023/11/26 04:43:06;;;;;;;2.75;1.30;;;-2.60;99.90;;;;;;5003660;28;20030;-56
2023/11/26 04:45:31;;;;;;;3.33;1.20;;;-2.70;99.90;;;;;;5016353;28;20037;-52
2023/11/26 04:47:57;;;;;;;1.92;1.20;;;-2.60;99.90;;;;;;5021286;28;20033;-50
2023/11/26 04:50:23;;;;;;;4.18;1.75;;;-2.60;99.90;;;;;;5019793;28;20108;-54
2023/11/26 04:52:50;;;;;;;2.35;1.02;;;-2.60;99.90;;;;;;5018386;28;20138;-55
2023/11/26 04:55:19;;;;;;;1.80;1.33;;;-2.60;99.90;;;;;;5019636;28;20218;-53
2023/11/26 04:57:48;;;;;;;2.30;1.50;;;-2.70;99.90;;;;;;5020838;28;20041;-57
2023/11/26 05:00:17;;;;;;;1.75;1.27;;;-2.70;99.90;;;;;;5018368;28;20030;-55
2023/11/26 05:02:43;;;;;;;1.95;1.60;;;-2.70;99.90;;;;;;5016457;28;20053;-54
2023/11/26 05:05:10;;;;;;;2.50;1.35;;;-2.70;99.90;;;;;;5018992;28;20462;-52
2023/11/26 05:07:39;;;;;;;2.58;1.65;;;-2.60;99.90;;;;;;5017039;28;20034;-53
2023/11/26 05:10:09;;;;;;;2.72;1.40;;;-2.60;99.90;;;;;;5022671;28;20030;-50
2023/11/26 05:12:37;;;;;;;1.33;1.17;;;-2.70;99.90;;;;;;5014293;28;20045;-55
2023/11/26 05:15:04;;;;;;;2.47;1.50;;;-2.70;99.90;;;;;;5020841;28;20096;-51
2023/11/26 05:17:30;;;;;;;1.38;1.20;;;-2.70;99.90;;;;;;5021504;28;20091;-55
2023/11/26 05:19:55;;;;;;;1.73;1.10;;;-2.70;99.90;;;;;;5023345;28;20029;-53
2023/11/26 05:22:21;;;;;;;3.72;1.60;;;-2.70;99.90;;;;;;5005290;28;20049;-53
2023/11/26 05:24:46;;;;;;;1.55;1.45;;;-2.70;99.90;;;;;;5022813;28;20033;-52
2023/11/26 05:27:12;;;;;;;1.48;0.98;;;-2.70;99.90;;;;;;5023830;28;20485;-54
2023/11/26 05:29:38;;;;;;;2.00;1.58;;;-2.70;99.90;;;;;;5022628;28;20517;-51
2023/11/26 05:32:04;;;;;;;1.55;1.20;;;-2.70;99.90;;;;;;5021858;28;20053;-51
2023/11/26 05:34:29;;;;;;;1.90;1.48;;;-2.70;99.90;;;;;;5008360;28;20025;-52
2023/11/26 05:36:55;;;;;;;3.05;1.17;;;-2.60;99.90;;;;;;5019979;28;20033;-57
2023/11/26 05:39:20;;;;;;;4.93;1.30;;;-2.60;99.90;;;;;;5019263;28;20577;-55
2023/11/26 05:41:46;;;;;;;1.85;1.30;;;-2.60;99.90;;;;;;5002297;28;20426;-51
2023/11/26 05:44:11;;;;;;;3.13;1.35;;;-2.60;99.90;;;;;;5022647;28;20127;-55
2023/11/26 05:46:41;;;;;;;1.67;1.38;;;-2.60;99.90;;;;;;5024968;28;20413;-54
2023/11/26 05:49:08;;;;;;;1.52;1.17;;;-2.60;99.90;;;;;;5020303;28;20124;-51
2023/11/26 05:51:33;;;;;;;1.90;1.42;;;-2.60;99.90;;;;;;5018202;28;20042;-52
2023/11/26 05:53:59;;;;;;;1.75;1.50;;;-2.50;99.90;;;;;;5021097;28;20521;-52
2023/11/26 05:56:24;;;;;;;1.65;1.45;;;-2.50;99.90;;;;;;5017846;28;20721;-53
2023/11/26 05:58:50;;;;;;;2.90;1.95;;;-2.50;99.90;;;;;;5022571;28;20026;-52
2023/11/26 06:01:23;;;;;;;4.53;1.67;;;-2.40;99.90;;;;;;5021148;28;20029;-54
2023/11/26 06:03:49;;;;;;;1.45;1.25;;;-2.40;99.90;;;;;;5018743;28;20195;-52
2023/11/26 06:06:14;;;;;;;2.25;1.42;;;-2.40;99.90;;;;;;5020670;28;20057;-50
2023/11/26 06:08:40;;;;;;;2.83;1.20;;;-2.40;99.90;;;;;;5022502;28;20037;-56
2023/11/26 06:11:05;;;;;;;2.67;1.85;;;-2.40;99.90;;;;;;5022187;28;20026;-53
2023/11/26 06:13:31;;;;;;;3.08;1.65;;;-2.40;99.90;;;;;;5021863;28;20038;-55
2023/11/26 06:15:57;;;;;;;2.72;1.58;;;-2.40;99.90;;;;;;5021463;28;20032;-55
2023/11/26 06:18:23;;;;;;;4.50;1.80;;;-2.40;99.90;;;;;;5022809;28;20111;-56
2023/11/26 06:20:48;;;;;;;3.20;1.48;;;-2.40;99.90;;;;;;5019295;28;20065;-54
2023/11/26 06:23:14;;;;;;;3.83;1.42;;;-2.30;99.90;;;;;;5021761;28;20479;-53
2023/11/26 06:25:39;;;;;;;1.92;1.55;;;-2.30;99.90;;;;;;5019251;28;20029;-51
2023/11/26 06:28:05;;;;;;;3.20;2.00;;;-2.30;99.90;;;;;;5022831;28;20035;-54
2023/11/26 06:30:30;;;;;;;3.75;2.00;;;-2.30;99.90;;;;;;5021616;28;20065;-54
2023/11/26 06:32:56;;;;;;;3.97;1.45;;;-2.30;99.90;;;;;;5024775;28;20099;-55
2023/11/26 06:35:21;;;;;;;4.00;1.70;;;-2.30;99.90;;;;;;5023322;28;20030;-51
2023/11/26 06:37:47;;;;;;;2.30;1.75;;;-2.20;99.90;;;;;;5022892;28;20038;-59
2023/11/26 06:40:13;;;;;;;3.00;2.10;;;-2.20;99.90;;;;;;5020894;28;20053;-52
2023/11/26 06:42:40;;;;;;;5.38;3.05;;;-2.20;99.90;;;;;;5005127;28;20525;-56
2023/11/26 06:45:07;;;;;;;16.98;8.55;;;-2.20;99.90;;;;;;5007957;28;20397;-54
2023/11/26 06:47:33;;;;;;;19.58;11.35;;;-2.10;99.90;;;;;;5006524;28;20489;-54
2023/11/26 06:49:59;;;;;;;12.77;8.63;;;-2.10;99.90;;;;;;5021094;28;20065;-56
2023/11/26 06:52:24;;;;;;;11.68;6.93;;;-2.00;99.90;;;;;;5017791;28;20487;-58
2023/11/26 06:54:50;;;;;;;14.43;7.65;;;-2.10;99.90;;;;;;5021523;28;20414;-54
2023/11/26 06:57:15;;;;;;;15.85;8.27;;;-2.00;99.90;;;;;;5022904;28;20026;-54
2023/11/26 06:59:41;;;;;;;13.50;7.97;;;-2.00;99.90;;;;;;5016682;28;20025;-52
2023/11/26 07:02:08;;;;;;;14.50;7.88;;;-2.00;99.90;;;;;;5018325;28;20675;-54
2023/11/26 07:04:34;;;;;;;12.80;5.90;;;-2.00;99.90;;;;;;5006018;28;20044;-50
2023/11/26 07:06:59;;;;;;;11.65;6.10;;;-2.00;99.90;;;;;;5017645;28;20497;-53
2023/11/26 07:09:25;;;;;;;9.02;4.20;;;-2.00;99.90;;;;;;5021110;28;20033;-53
2023/11/26 07:11:50;;;;;;;5.40;3.28;;;-1.90;99.90;;;;;;5021971;28;20038;-51
2023/11/26 07:14:16;;;;;;;4.80;2.25;;;-1.90;99.90;;;;;;5017698;28;20049;-52
2023/11/26 07:16:42;;;;;;;2.42;2.22;;;-1.90;99.90;;;;;;5019903;28;20079;-55
2023/11/26 07:19:07;;;;;;;5.32;2.95;;;-2.00;99.90;;;;;;5022126;28;20112;-55
2023/11/26 07:21:41;;;;;;;3.45;2.00;;;-1.90;99.90;;;;;;5022453;28;20370;-51
2023/11/26 07:24:08;;;;;;;3.45;1.92;;;-1.90;99.90;;;;;;5020442;28;20025;-59
2023/11/26 07:26:33;;;;;;;2.38;2.05;;;-1.90;99.90;;;;;;5022691;28;20092;-57
2023/11/26 07:28:59;;;;;;;2.78;2.22;;;-1.90;99.90;;;;;;5019136;28;20056;-53
2023/11/26 07:31:24;;;;;;;2.60;1.60;;;-1.90;99.90;;;;;;5021917;28;20105;-54
2023/11/26 07:33:50;;;;;;;2.05;1.52;;;-1.80;99.90;;;;;;5020056;28;20033;-52
2023/11/26 07:36:22;;;;;;;8.05;2.25;;;-1.80;99.90;;;;;;5018963;28;20025;-54
2023/11/26 07:38:51;;;;;;;1.40;1.30;;;-1.80;99.90;;;;;;5020959;28;20040;-53
2023/11/26 07:41:17;;;;;;;3.33;2.00;;;-1.70;99.90;;;;;;5006133;28;20021;-52
2023/11/26 07:43:43;;;;;;;2.95;2.00;;;-1.70;99.90;;;;;;4999524;28;20084;-54
2023/11/26 07:46:12;;;;;;;4.07;2.08;;;-1.70;99.90;;;;;;5004509;28;20028;-53
2023/11/26 07:48:38;;;;;;;2.25;1.80;;;-1.70;99.90;;;;;;5019069;28;20110;-54
2023/11/26 07:51:04;;;;;;;2.17;1.98;;;-1.60;99.90;;;;;;5016493;28;20032;-51
2023/11/26 07:53:33;;;;;;;2.22;1.95;;;-1.60;99.90;;;;;;5017669;28;20029;-51
2023/11/26 07:55:59;;;;;;;3.40;2.05;;;-1.60;99.90;;;;;;5015440;28;20030;-52
2023/11/26 07:58:27;;;;;;;2.22;1.88;;;-1.60;99.90;;;;;;5020970;28;20061;-54
2023/11/26 08:00:53;;;;;;;2.78;2.08;;;-1.50;99.90;;;;;;5017788;28;20510;-52
2023/11/26 08:03:19;;;;;;;3.75;2.58;;;-1.50;99.90;;;;;;5003539;28;20048;-53
2023/11/26 08:05:44;;;;;;;2.97;2.67;;;-1.40;99.90;;;;;;5018677;28;20131;-53
2023/11/26 08:08:14;;;;;;;4.45;2.70;;;-1.40;99.90;;;;;;5020946;28;20493;-56
2023/11/26 08:10:39;;;;;;;2.50;2.08;;;-1.40;99.90;;;;;;5015788;28;20119;-58
2023/11/26 08:13:07;;;;;;;4.53;2.50;;;-1.40;99.90;;;;;;5020120;28;20037;-55
2023/11/26 08:15:38;;;;;;;3.33;2.38;;;-1.30;99.90;;;;;;5015180;28;20029;-56
2023/11/26 08:18:06;;;;;;;3.17;2.33;;;-1.30;99.90;;;;;;5021128;28;20025;-56
2023/11/26 08:20:31;;;;;;;3.53;2.30;;;-1.20;99.90;;;;;;5018644;28;20029;-55
2023/11/26 08:23:01;;;;;;;2.92;2.10;;;-1.20;99.90;;;;;;5003542;28;20038;-54
2023/11/26 08:25:29;;;;;;;4.03;2.47;;;-1.20;99.90;;;;;;5018044;28;20075;-54
2023/11/26 08:27:55;;;;;;;5.65;3.20;;;-1.10;99.90;;;;;;5017708;28;20033;-54
2023/11/26 08:30:41;;;;;;;3.88;2.47;;;-1.10;99.90;;;;;;5018165;28;20040;-55
2023/11/26 08:33:07;;;;;;;4.63;2.57;;;-1.10;99.90;;;;;;5020423;28;20049;-51
2023/11/26 08:35:33;;;;;;;6.13;3.03;;;-1.10;99.90;;;;;;5018794;28;20113;-55
2023/11/26 08:38:01;;;;;;;4.18;2.35;;;-1.10;99.90;;;;;;5021239;28;20429;-56
2023/11/26 08:40:33;;;;;;;3.03;2.35;;;-1.10;99.90;;;;;;5018475;28;20374;-54
2023/11/26 08:42:58;;;;;;;3.67;2.60;;;-1.10;99.90;;;;;;5014644;28;20022;-54
2023/11/26 08:45:24;;;;;;;7.25;2.75;;;-1.10;99.90;;;;;;5017582;28;20048;-52
2023/11/26 08:47:51;;;;;;;3.38;2.40;;;-1.00;99.90;;;;;;5019883;28;20124;-52
2023/11/26 08:50:17;;;;;;;3.88;3.00;;;-1.00;99.90;;;;;;5017441;28;20026;-56
2023/11/26 08:52:42;;;;;;;2.65;2.35;;;-0.90;99.90;;;;;;5006890;28;20053;-53
2023/11/26 08:55:09;;;;;;;3.65;2.90;;;-0.90;99.90;;;;;;5020437;28;20030;-55
2023/11/26 08:57:38;;;;;;;3.65;2.90;;;-0.90;99.90;;;;;;5021079;28;20030;-57
2023/11/26 09:00:09;;;;;;;3.85;2.92;;;-0.80;99.90;;;;;;5018695;28;20026;-54
2023/11/26 09:02:38;;;;;;;3.80;2.75;;;-0.80;99.90;;;;;;5019640;28;20118;-56
2023/11/26 09:05:08;;;;;;;3.58;2.70;;;-0.70;99.90;;;;;;5019974;28;20030;-56
2023/11/26 09:07:35;;;;;;;3.92;2.70;;;-0.70;99.90;;;;;;5021311;28;20398;-56
2023/11/26 09:10:02;;;;;;;2.83;2.55;;;-0.70;99.90;;;;;;5025054;28;20034;-53
2023/11/26 09:12:28;;;;;;;2.45;2.13;;;-0.70;99.90;;;;;;5022508;28;20024;-52
2023/11/26 09:14:53;;;;;;;2.10;1.90;;;-0.60;99.90;;;;;;5021841;28;20394;-56
2023/11/26 09:17:21;;;;;;;4.35;2.83;;;-0.60;99.90;;;;;;5022250;28;20057;-54
2023/11/26 09:19:47;;;;;;;3.72;2.83;;;-0.50;99.90;;;;;;5022299;28;20052;-53
2023/11/26 09:22:13;;;;;;;2.75;2.38;;;-0.50;99.90;;;;;;5008572;28;20025;-55
2023/11/26 09:24:38;;;;;;;5.30;2.97;;;-0.40;99.90;;;;;;5023137;28;20075;-53
2023/11/26 09:27:05;;;;;;;6.10;3.05;;;-0.40;99.90;;;;;;5005171;28;20030;-55
2023/11/26 09:29:30;;;;;;;4.18;2.63;;;-0.30;99.90;;;;;;5022451;28;20084;-52
2023/11/26 09:31:56;;;;;;;3.28;2.92;;;-0.30;99.90;;;;;;5002400;28;20470;-53
2023/11/26 09:34:21;;;;;;;3.13;2.55;;;-0.20;99.90;;;;;;5006319;28;20022;-58
2023/11/26 09:36:47;;;;;;;6.15;3.40;;;-0.20;99.90;;;;;;5021061;28;20037;-58
2023/11/26 09:39:13;;;;;;;5.72;3.65;;;-0.10;99.90;;;;;;5017677;28;20029;-54
2023/11/26 09:41:41;;;;;;;5.78;4.05;;;-0.10;99.90;;;;;;5003667;28;20087;-56
2023/11/26 09:44:07;;;;;;;5.28;3.58;;;0.00;99.90;;;;;;5008458;28;20029;-55
2023/11/26 09:46:34;;;;;;;5.35;3.90;;;0.00;99.90;;;;;;5020464;28;20075;-58
2023/11/26 09:49:03;;;;;;;5.13;3.53;;;0.10;99.90;;;;;;5023744;28;20053;-57
2023/11/26 09:51:35;;;;;;;5.22;2.85;;;0.10;99.90;;;;;;5022947;28;20026;-54
2023/11/26 09:54:04;;;;;;;3.97;3.47;;;0.10;99.90;;;;;;5023323;28;20033;-57
2023/11/26 09:56:30;;;;;;;4.45;2.85;;;0.10;99.90;;;;;;5019310;28;20560;-60
2023/11/26 09:58:56;;;;;;;3.22;2.92;;;0.10;99.90;;;;;;5006348;28;20079;-53
2023/11/26 10:01:21;;;;;;;6.20;3.00;;;0.10;99.90;;;;;;5044129;22;20434;-67
2023/11/26 10:03:57;;;;;;;4.10;3.70;;;0.10;99.90;;;;;;5026036;28;20108;-66
2023/11/26 10:06:23;;;;;;;4.85;3.53;;;0.20;99.90;;;;;;5006955;28;20371;-66
2023/11/26 10:08:49;;;;;;;5.32;3.92;;;0.20;99.90;;;;;;5026114;28;20104;-66
2023/11/26 10:11:22;;;;;;;5.63;3.75;;;0.20;99.90;;;;;;5023029;28;20105;-67
2023/11/26 10:13:48;;;;;;;5.28;3.92;;;0.20;99.90;;;;;;5023450;28;20022;-66
2023/11/26 10:16:32;;;;;;;5.40;4.32;;;0.20;99.90;;;;;;5008174;28;20061;-66
2023/11/26 10:19:00;;;;;;;5.85;3.40;;;0.20;99.90;;;;;;5026543;28;20034;-67
2023/11/26 10:21:26;;;;;;;4.10;3.67;;;0.30;99.90;;;;;;5022735;28;20476;-66
2023/11/26 10:23:51;;;;;;;6.35;3.85;;;0.30;99.90;;;;;;5027166;28;20056;-66
2023/11/26 10:26:23;;;;;;;6.22;4.28;;;0.30;99.90;;;;;;5022503;28;20617;-68
2023/11/26 10:29:12;;;;;;;4.53;3.85;;;0.30;99.90;;;;;;5006972;28;20032;-67
2023/11/26 10:31:59;;;;;;;5.28;3.08;;;0.30;99.90;;;;;;5021943;28;20025;-66
2023/11/26 10:34:25;;;;;;;3.35;2.78;;;0.40;99.90;;;;;;5005617;28;20417;-67
2023/11/26 10:36:51;;;;;;;7.15;3.00;;;0.40;99.90;;;;;;5005137;28;20058;-67
2023/11/26 10:39:17;;;;;;;4.78;4.03;;;0.40;99.90;;;;;;5024714;28;20673;-67
2023/11/26 10:41:45;;;;;;;5.88;4.25;;;0.40;99.90;;;;;;5004013;28;20062;-67
2023/11/26 10:44:13;;;;;;;4.38;3.90;;;0.50;99.90;;;;;;5023549;28;20049;-67
2023/11/26 10:46:41;;;;;;;5.55;3.80;;;0.50;99.90;;;;;;5003792;28;20100;-66
2023/11/26 10:49:16;;;;;;;5.70;3.70;;;0.50;99.90;;;;;;5008926;28;20425;-66
2023/11/26 10:51:48;;;;;;;3.67;3.30;;;0.50;99.90;;;;;;5021901;28;20211;-66
2023/11/26 10:54:25;;;;;;;4.05;3.13;;;0.50;99.90;;;;;;5011075;28;20025;-65
2023/11/26 10:56:54;;;;;;;4.88;3.38;;;0.60;99.90;;;;;;5023977;28;20041;-65
2023/11/26 10:59:21;;;;;;;3.75;3.03;;;0.60;99.90;;;;;;5026515;28;20021;-66
2023/11/26 11:01:47;;;;;;;6.88;3.17;;;0.60;99.90;;;;;;5022318;28;20331;-65
2023/11/26 11:04:14;;;;;;;5.00;3.45;;;0.60;99.90;;;;;;5022456;28;20026;-65
2023/11/26 11:06:41;;;;;;;7.80;3.75;;;0.60;99.90;;;;;;5022416;28;20099;-65
2023/11/26 11:09:13;;;;;;;7.90;5.30;;;0.70;99.90;;;;;;5023547;28;20037;-64
2023/11/26 11:11:55;;;;;;;6.38;4.68;;;0.60;99.90;;;;;;5002958;28;20041;-64
2023/11/26 11:14:22;;;;;;;5.70;4.50;;;0.60;99.90;;;;;;5023106;28;20026;-65
2023/11/26 11:16:48;;;;;;;5.85;4.70;;;0.70;99.90;;;;;;5022863;28;20037;-65
2023/11/26 11:19:46;;;;;;;6.40;4.72;;;0.80;99.90;;;;;;5026778;28;20048;-64
2023/11/26 11:22:11;;;;;;;5.00;4.32;;;0.80;99.90;;;;;;5023735;28;20102;-63
2023/11/26 11:24:37;;;;;;;4.80;4.30;;;0.80;99.90;;;;;;5021082;28;20621;-63
2023/11/26 11:27:03;;;;;;;7.72;4.60;;;0.90;99.90;;;;;;5022846;28;20037;-63
2023/11/26 11:29:32;;;;;;;6.18;4.50;;;0.90;99.90;;;;;;5010280;28;20172;-63
2023/11/26 11:32:01;;;;;;;5.20;3.97;;;0.90;99.90;;;;;;5009864;28;20543;-63
2023/11/26 11:34:30;;;;;;;5.95;4.18;;;0.90;99.90;;;;;;5022972;28;20025;-65
2023/11/26 11:36:58;;;;;;;4.30;3.78;;;1.00;99.90;;;;;;5028151;28;20035;-62
2023/11/26 11:39:41;;;;;;;7.18;4.25;;;1.00;99.90;;;;;;5009489;28;20411;-63
2023/11/26 11:42:11;;;;;;;5.32;4.00;;;1.00;99.90;;;;;;5022249;28;20041;-62
2023/11/26 11:44:43;;;;;;;4.13;3.72;;;1.00;99.90;;;;;;5005243;28;20026;-62
2023/11/26 11:47:10;;;;;;;5.15;4.65;;;1.00;99.90;;;;;;5024319;28;20512;-61
2023/11/26 11:49:45;;;;;;;7.47;4.70;;;1.10;99.90;;;;;;5005281;28;20429;-61
2023/11/26 11:52:15;;;;;;;7.20;4.88;;;1.10;99.90;;;;;;5022566;28;20508;-62
2023/11/26 11:55:18;;;;;;;9.30;6.63;;;1.10;99.90;;;;;;5007138;28;20353;-61
2023/11/26 11:57:46;;;;;;;6.55;5.45;;;1.10;99.90;;;;;;5024050;28;20033;-61
2023/11/26 12:00:16;;;;;;;9.45;5.35;;;1.20;99.90;;;;;;5014009;28;20021;-61
2023/11/26 12:02:41;;;;;;;8.73;5.40;;;1.20;99.90;;;;;;5022484;28;20493;-61
2023/11/26 12:05:39;;;;;;;7.78;5.68;;;1.20;99.90;;;;;;5021298;28;20036;-61
2023/11/26 12:08:12;;;;;;;7.53;6.53;;;1.20;99.90;;;;;;4977863;28;20041;-61
2023/11/26 12:10:38;;;;;;;13.43;8.55;;;1.30;99.90;;;;;;5020410;28;20466;-61
2023/11/26 12:13:08;;;;;;;16.50;10.60;;;1.30;99.90;;;;;;5004306;28;20079;-60
2023/11/26 12:15:35;;;;;;;11.93;9.95;;;1.30;99.90;;;;;;5021564;28;20049;-59
2023/11/26 12:18:01;;;;;;;9.75;7.00;;;1.30;99.90;;;;;;5025857;28;20032;-58
2023/11/26 12:20:27;;;;;;;8.70;6.82;;;1.30;99.90;;;;;;5009650;28;20405;-60
2023/11/26 12:22:54;;;;;;;7.22;5.60;;;1.30;99.90;;;;;;5021231;28;20025;-60
2023/11/26 12:25:21;;;;;;;5.82;4.97;;;1.40;99.90;;;;;;5025425;28;20100;-58
2023/11/26 12:28:07;;;;;;;7.97;4.50;;;1.40;99.90;;;;;;5028579;28;20025;-58
2023/11/26 12:30:36;;;;;;;6.53;5.13;;;1.40;99.90;;;;;;5019612;28;20516;-59
2023/11/26 12:33:03;;;;;;;5.43;4.90;;;1.40;99.90;;;;;;5022508;28;20485;-60
2023/11/26 12:35:30;;;;;;;7.05;4.57;;;1.40;99.90;;;;;;5023757;28;20099;-58
2023/11/26 12:37:58;;;;;;;7.13;4.65;;;1.40;99.90;;;;;;5021811;28;20120;-59
2023/11/26 12:40:24;;;;;;;6.75;3.88;;;1.40;99.90;;;;;;5005919;28;20029;-59
2023/11/26 12:42:50;;;;;;;5.43;4.32;;;1.40;99.90;;;;;;5022899;28;20029;-58
2023/11/26 12:45:18;;;;;;;4.90;4.35;;;1.50;99.90;;;;;;5020526;28;20471;-60
2023/11/26 12:47:54;;;;;;;5.28;4.35;;;1.50;99.90;;;;;;5022887;28;20142;-59
2023/11/26 12:50:20;;;;;;;5.75;4.78;;;1.50;99.90;;;;;;5024167;28;20248;-59
2023/11/26 12:52:47;;;;;;;6.50;4.68;;;1.50;99.90;;;;;;5024461;28;20505;-59
2023/11/26 12:55:14;;;;;;;5.35;3.90;;;1.40;99.90;;;;;;5024181;28;20022;-59